UKBBLMML

Guest
Details From UKBB - Boryspil
To LMML - La Valette Luqa
Flight Number -
Tags decoded
Created
Modified
Stats Distance 1,124 nm / 2,082 km
Max Altitude 0 ft / 0 m
Waypoints 2
Social Downloads 0
Likes 0
Share VATSIM

Download

Looking for another format? Having issues loading an existing format? Contact us
Advertisement - Login to hide

Notes

Requested: UKBB LMML

Route

UKBB LMML

ID Type Via Altitude Latitude Longitude Leg Dist Tot Dist Heading (true) Name
O UKBB APT - 0 ft / 0 m 50.33947˚ 30.89290˚ - 0 nm - Boryspil
O LMML APT - 0 ft / 0 m 35.84948˚ 14.48184˚ 1124 nm 1124 nm 226° / 214° La Valette Luqa

Altitude Profile

Advertisement - Login to hide

Weather


0- 5 10 15 20 25 30 35+ Temperature / ° C

Clouds and Precipitation
Forecast for 2018-05-25 12:00 UTC. Updated 17 minutes ago

Ground ~20,000 ft ~40,000 ft Winds

UKBB

Details ICAO UKBB (KBP)
Name Boryspil
Region Ukraine
Timezone Europe/Kiev (UTC+3.0)
Stats Elevation 421 ft / 128 m (AMSL)
Location 50.339472° 30.892903°
Runways 2
Magnetic Variation 7.721° E

METAR

UKBB 251130Z 03008MPS CAVOK 26/10 Q1019 R88/CLRD// NOSIG

Decode

TAF

Not found

Departure Runways

ID Width Length Bearing (true) Bearing (mag) Surface Threshold Offset Overrun Length
18L 197 ft / 60 m 13,152 ft / 4,009 m 182.72° 175.00° Concrete 0 ft / 0 m 295 ft / 90 m
18R 207 ft / 63 m 11,470 ft / 3,496 m 182.62° 174.90° Concrete 0 ft / 0 m 164 ft / 50 m
36L 207 ft / 63 m 11,470 ft / 3,496 m 2.62° 354.90° Concrete 0 ft / 0 m 164 ft / 50 m
36R 197 ft / 60 m 13,152 ft / 4,009 m 2.72° 355.00° Concrete 0 ft / 0 m 295 ft / 90 m

LMML

Details ICAO LMML (MLA)
Name La Valette Luqa
Region Malta
Timezone Europe/Malta (UTC+2.0)
Stats Elevation 300 ft / 91 m (AMSL)
Location 35.849477° 14.481836°
Runways 2
Magnetic Variation 3.062° E

METAR

LMML 251115Z 22008KT 190V250 9999 FEW011 24/17 Q1015 NOSIG

Decode

TAF

Not found

Destination Runways

ID Width Length Bearing (true) Bearing (mag) Surface Threshold Offset Overrun Length
14 197 ft / 60 m 11,635 ft / 3,546 m 134.83° 131.77° Asphalt 0 ft / 0 m 420 ft / 128 m
24 148 ft / 45 m 7,789 ft / 2,374 m 234.37° 231.31° Asphalt 410 ft / 125 m 0 ft / 0 m
32 197 ft / 60 m 11,635 ft / 3,546 m 314.85° 311.79° Asphalt 817 ft / 249 m 0 ft / 0 m
6 148 ft / 45 m 7,789 ft / 2,374 m 54.35° 51.29° Asphalt 400 ft / 122 m 0 ft / 0 m

Approach Navaids

Runway Type Ident Frequency Range Bearing (true) Bearing (mag) Slope Elevation
14 Localiser LQ 109.70 MHz 18 nm / 33 km 134.95° 131.89° - 230 ft / 70 m (AMSL)
14 Glidescope LQ 109.70 MHz 10 nm / 19 km 134.84° 131.78° 2.85° 256 ft / 78 m (AMSL)
32 Localiser LM 110.50 MHz 18 nm / 33 km 314.79° 311.73° - 256 ft / 78 m (AMSL)
32 Glidescope LM 110.50 MHz 10 nm / 19 km 314.84° 311.78° 2.85° 230 ft / 70 m (AMSL)

Popular Alternatives